<?xml version="1.0" encoding="UTF-8" standalone="no" ?>
<gpx xmlns="http://www.topografix.com/GPX/1/1" xmlns:xsi="http://www.w3.org/2001/XMLSchema-instance" xsi:schemaLocation="http://www.topografix.com/GPX/1/1 http://www.topografix.com/GPX/1/1/gpx.xsd" version="1.1" creator="VisuGPX - https://www.visugpx.com">
  <metadata>
    <name>La Grésière (Drôme)</name>
    <desc><![CDATA[Randonnée peu difficile dans la forêt domaniale du Glandasse au départ des Gallands]]></desc>
  </metadata>
  <trk>
    <name><![CDATA[La Grésière - PD]]></name>
    <trkseg>
      <trkpt lat="44.66939" lon="5.49612">
        <ele>704</ele>
        <time>2020-04-24T07:26:03.16Z</time>
      </trkpt>
      <trkpt lat="44.66931" lon="5.49603">
        <ele>704</ele>
        <time>2020-04-24T07:26:14.56Z</time>
      </trkpt>
      <trkpt lat="44.66904" lon="5.49588">
        <ele>704</ele>
        <time>2020-04-24T07:26:50Z</time>
      </trkpt>
      <trkpt lat="44.66891" lon="5.49571">
        <ele>706</ele>
        <time>2020-04-24T07:27:11.71Z</time>
      </trkpt>
      <trkpt lat="44.6687" lon="5.49557">
        <ele>708</ele>
        <time>2020-04-24T07:27:45.64Z</time>
      </trkpt>
      <trkpt lat="44.66845" lon="5.49551">
        <ele>712</ele>
        <time>2020-04-24T07:28:27.39Z</time>
      </trkpt>
      <trkpt lat="44.6683" lon="5.49573">
        <ele>715</ele>
        <time>2020-04-24T07:29:02.95Z</time>
      </trkpt>
      <trkpt lat="44.66833" lon="5.49588">
        <ele>717</ele>
        <time>2020-04-24T07:29:21Z</time>
      </trkpt>
      <trkpt lat="44.66818" lon="5.49614">
        <ele>721</ele>
        <time>2020-04-24T07:30:04.40Z</time>
      </trkpt>
      <trkpt lat="44.6681" lon="5.49597">
        <ele>724</ele>
        <time>2020-04-24T07:30:30.90Z</time>
      </trkpt>
      <trkpt lat="44.66791" lon="5.49628">
        <ele>730</ele>
        <time>2020-04-24T07:31:32.08Z</time>
      </trkpt>
      <trkpt lat="44.66706" lon="5.49678">
        <ele>752</ele>
        <time>2020-04-24T07:36:04.91Z</time>
      </trkpt>
      <trkpt lat="44.66598" lon="5.49807">
        <ele>807</ele>
        <time>2020-04-24T07:43:47.87Z</time>
      </trkpt>
      <trkpt lat="44.66578" lon="5.49945">
        <ele>840</ele>
        <time>2020-04-24T07:47:50.73Z</time>
      </trkpt>
      <trkpt lat="44.66571" lon="5.49968">
        <ele>844</ele>
        <time>2020-04-24T07:48:33.60Z</time>
      </trkpt>
      <trkpt lat="44.66556" lon="5.49897">
        <ele>853</ele>
        <time>2020-04-24T07:50:04.92Z</time>
      </trkpt>
      <trkpt lat="44.66535" lon="5.49869">
        <ele>858</ele>
        <time>2020-04-24T07:50:49.64Z</time>
      </trkpt>
      <trkpt lat="44.66524" lon="5.49866">
        <ele>859</ele>
        <time>2020-04-24T07:51:07.09Z</time>
      </trkpt>
      <trkpt lat="44.66534" lon="5.49916">
        <ele>864</ele>
        <time>2020-04-24T07:52:00.50Z</time>
      </trkpt>
      <trkpt lat="44.66524" lon="5.49979">
        <ele>869</ele>
        <time>2020-04-24T07:53:07.59Z</time>
      </trkpt>
      <trkpt lat="44.66499" lon="5.49919">
        <ele>876</ele>
        <time>2020-04-24T07:54:29.93Z</time>
      </trkpt>
      <trkpt lat="44.66457" lon="5.4988">
        <ele>885</ele>
        <time>2020-04-24T07:56:01.17Z</time>
      </trkpt>
      <trkpt lat="44.66418" lon="5.49871">
        <ele>893</ele>
        <time>2020-04-24T07:57:21.20Z</time>
      </trkpt>
      <trkpt lat="44.66437" lon="5.49898">
        <ele>900</ele>
        <time>2020-04-24T07:58:20.74Z</time>
      </trkpt>
      <trkpt lat="44.66449" lon="5.49931">
        <ele>906</ele>
        <time>2020-04-24T07:59:18.16Z</time>
      </trkpt>
      <trkpt lat="44.66457" lon="5.49992">
        <ele>917</ele>
        <time>2020-04-24T08:00:55.31Z</time>
      </trkpt>
      <trkpt lat="44.66424" lon="5.49957">
        <ele>927</ele>
        <time>2020-04-24T08:02:22.17Z</time>
      </trkpt>
      <trkpt lat="44.66413" lon="5.49952">
        <ele>930</ele>
        <time>2020-04-24T08:02:46.27Z</time>
      </trkpt>
      <trkpt lat="44.66428" lon="5.50012">
        <ele>940</ele>
        <time>2020-04-24T08:04:18.40Z</time>
      </trkpt>
      <trkpt lat="44.66426" lon="5.50028">
        <ele>943</ele>
        <time>2020-04-24T08:04:41.76Z</time>
      </trkpt>
      <trkpt lat="44.66404" lon="5.49995">
        <ele>950</ele>
        <time>2020-04-24T08:05:41.92Z</time>
      </trkpt>
      <trkpt lat="44.66406" lon="5.50027">
        <ele>954</ele>
        <time>2020-04-24T08:06:22.62Z</time>
      </trkpt>
      <trkpt lat="44.66396" lon="5.50052">
        <ele>958</ele>
        <time>2020-04-24T08:06:57.70Z</time>
      </trkpt>
      <trkpt lat="44.66375" lon="5.5007">
        <ele>962</ele>
        <time>2020-04-24T08:07:39.44Z</time>
      </trkpt>
      <trkpt lat="44.66372" lon="5.50109">
        <ele>967</ele>
        <time>2020-04-24T08:08:27.85Z</time>
      </trkpt>
      <trkpt lat="44.66356" lon="5.50132">
        <ele>971</ele>
        <time>2020-04-24T08:09:07.67Z</time>
      </trkpt>
      <trkpt lat="44.66322" lon="5.50138">
        <ele>977</ele>
        <time>2020-04-24T08:10:10.41Z</time>
      </trkpt>
      <trkpt lat="44.6625" lon="5.50171">
        <ele>992</ele>
        <time>2020-04-24T08:12:46.94Z</time>
      </trkpt>
      <trkpt lat="44.66192" lon="5.5021">
        <ele>1009</ele>
        <time>2020-04-24T08:15:50.85Z</time>
      </trkpt>
      <trkpt lat="44.66136" lon="5.50276">
        <ele>1036</ele>
        <time>2020-04-24T08:20:05.26Z</time>
      </trkpt>
      <trkpt lat="44.66118" lon="5.50288">
        <ele>1044</ele>
        <time>2020-04-24T08:21:13.74Z</time>
      </trkpt>
      <trkpt lat="44.66104" lon="5.50311">
        <ele>1053</ele>
        <time>2020-04-24T08:22:31.54Z</time>
      </trkpt>
      <trkpt lat="44.66106" lon="5.5036">
        <ele>1067</ele>
        <time>2020-04-24T08:24:21.20Z</time>
      </trkpt>
      <trkpt lat="44.66097" lon="5.50407">
        <ele>1077</ele>
        <time>2020-04-24T08:25:22.02Z</time>
      </trkpt>
      <trkpt lat="44.66063" lon="5.50466">
        <ele>1083</ele>
        <time>2020-04-24T08:26:29.34Z</time>
      </trkpt>
      <trkpt lat="44.66064" lon="5.50498">
        <ele>1082</ele>
        <time>2020-04-24T08:26:57.14Z</time>
      </trkpt>
      <trkpt lat="44.66077" lon="5.50559">
        <ele>1074</ele>
        <time>2020-04-24T08:28:17.59Z</time>
      </trkpt>
      <trkpt lat="44.66129" lon="5.5063">
        <ele>1050</ele>
        <time>2020-04-24T08:31:00.38Z</time>
      </trkpt>
      <trkpt lat="44.66093" lon="5.5069">
        <ele>1029</ele>
        <time>2020-04-24T08:33:12.89Z</time>
      </trkpt>
      <trkpt lat="44.66067" lon="5.50714">
        <ele>1018</ele>
        <time>2020-04-24T08:33:49Z</time>
      </trkpt>
      <trkpt lat="44.65801" lon="5.50861">
        <ele>1038</ele>
        <time>2020-04-24T08:39:44.97Z</time>
      </trkpt>
      <trkpt lat="44.6579" lon="5.50855">
        <ele>1039</ele>
        <time>2020-04-24T08:39:58.86Z</time>
      </trkpt>
      <trkpt lat="44.65771" lon="5.50858">
        <ele>1039</ele>
        <time>2020-04-24T08:40:20.22Z</time>
      </trkpt>
      <trkpt lat="44.65729" lon="5.50899">
        <ele>1038</ele>
        <time>2020-04-24T08:41:17.65Z</time>
      </trkpt>
      <trkpt lat="44.65695" lon="5.50914">
        <ele>1038</ele>
        <time>2020-04-24T08:41:58.37Z</time>
      </trkpt>
      <trkpt lat="44.65654" lon="5.50913">
        <ele>1040</ele>
        <time>2020-04-24T08:42:48.49Z</time>
      </trkpt>
      <trkpt lat="44.65646" lon="5.50934">
        <ele>1040</ele>
        <time>2020-04-24T08:43:08.79Z</time>
      </trkpt>
      <trkpt lat="44.656" lon="5.50964">
        <ele>1043</ele>
        <time>2020-04-24T08:44:10.39Z</time>
      </trkpt>
      <trkpt lat="44.6558" lon="5.50965">
        <ele>1044</ele>
        <time>2020-04-24T08:44:35.37Z</time>
      </trkpt>
      <trkpt lat="44.65541" lon="5.5098">
        <ele>1046</ele>
        <time>2020-04-24T08:45:23.41Z</time>
      </trkpt>
      <trkpt lat="44.65506" lon="5.51011">
        <ele>1047</ele>
        <time>2020-04-24T08:46:10.83Z</time>
      </trkpt>
      <trkpt lat="44.65498" lon="5.51004">
        <ele>1048</ele>
        <time>2020-04-24T08:46:22.47Z</time>
      </trkpt>
      <trkpt lat="44.65474" lon="5.51005">
        <ele>1048</ele>
        <time>2020-04-24T08:46:49.80Z</time>
      </trkpt>
      <trkpt lat="44.65465" lon="5.51012">
        <ele>1049</ele>
        <time>2020-04-24T08:47:01.44Z</time>
      </trkpt>
      <trkpt lat="44.65448" lon="5.51046">
        <ele>1049</ele>
        <time>2020-04-24T08:47:35.88Z</time>
      </trkpt>
      <trkpt lat="44.65425" lon="5.51059">
        <ele>1050</ele>
        <time>2020-04-24T08:48:05.91Z</time>
      </trkpt>
      <trkpt lat="44.65403" lon="5.51054">
        <ele>1051</ele>
        <time>2020-04-24T08:48:33.16Z</time>
      </trkpt>
      <trkpt lat="44.65389" lon="5.51071">
        <ele>1052</ele>
        <time>2020-04-24T08:48:56.53Z</time>
      </trkpt>
      <trkpt lat="44.65353" lon="5.51085">
        <ele>1055</ele>
        <time>2020-04-24T08:49:42.89Z</time>
      </trkpt>
      <trkpt lat="44.65344" lon="5.511">
        <ele>1055</ele>
        <time>2020-04-24T08:49:59.40Z</time>
      </trkpt>
      <trkpt lat="44.65325" lon="5.51101">
        <ele>1057</ele>
        <time>2020-04-24T08:50:24Z</time>
      </trkpt>
      <trkpt lat="44.65314" lon="5.51117">
        <ele>1058</ele>
        <time>2020-04-24T08:50:43.25Z</time>
      </trkpt>
      <trkpt lat="44.653" lon="5.51121">
        <ele>1059</ele>
        <time>2020-04-24T08:51:00.43Z</time>
      </trkpt>
      <trkpt lat="44.65286" lon="5.5114">
        <ele>1060</ele>
        <time>2020-04-24T08:51:24.97Z</time>
      </trkpt>
      <trkpt lat="44.65271" lon="5.51144">
        <ele>1061</ele>
        <time>2020-04-24T08:51:43.89Z</time>
      </trkpt>
      <trkpt lat="44.65148" lon="5.51244">
        <ele>1068</ele>
        <time>2020-04-24T08:54:35.46Z</time>
      </trkpt>
      <trkpt lat="44.65117" lon="5.5128">
        <ele>1070</ele>
        <time>2020-04-24T08:55:24.80Z</time>
      </trkpt>
      <trkpt lat="44.6508" lon="5.51308">
        <ele>1073</ele>
        <time>2020-04-24T08:56:17.63Z</time>
      </trkpt>
      <trkpt lat="44.65026" lon="5.51363">
        <ele>1077</ele>
        <time>2020-04-24T08:57:38.09Z</time>
      </trkpt>
      <trkpt lat="44.64968" lon="5.51408">
        <ele>1079</ele>
        <time>2020-04-24T08:58:53.46Z</time>
      </trkpt>
      <trkpt lat="44.64954" lon="5.51403">
        <ele>1079</ele>
        <time>2020-04-24T08:59:09.49Z</time>
      </trkpt>
      <trkpt lat="44.64915" lon="5.51429">
        <ele>1079</ele>
        <time>2020-04-24T08:59:57.63Z</time>
      </trkpt>
      <trkpt lat="44.64909" lon="5.51448">
        <ele>1079</ele>
        <time>2020-04-24T09:00:13.84Z</time>
      </trkpt>
      <trkpt lat="44.64882" lon="5.5147">
        <ele>1079</ele>
        <time>2020-04-24T09:00:49.50Z</time>
      </trkpt>
      <trkpt lat="44.64863" lon="5.51506">
        <ele>1080</ele>
        <time>2020-04-24T09:01:28.46Z</time>
      </trkpt>
      <trkpt lat="44.64845" lon="5.51527">
        <ele>1082</ele>
        <time>2020-04-24T09:01:59.96Z</time>
      </trkpt>
      <trkpt lat="44.64838" lon="5.51546">
        <ele>1083</ele>
        <time>2020-04-24T09:02:20.59Z</time>
      </trkpt>
      <trkpt lat="44.64823" lon="5.51554">
        <ele>1085</ele>
        <time>2020-04-24T09:02:44.52Z</time>
      </trkpt>
      <trkpt lat="44.64787" lon="5.5152">
        <ele>1091</ele>
        <time>2020-04-24T09:04:12.99Z</time>
      </trkpt>
      <trkpt lat="44.64693" lon="5.51547">
        <ele>1117</ele>
        <time>2020-04-24T09:08:35.60Z</time>
      </trkpt>
      <trkpt lat="44.64658" lon="5.51581">
        <ele>1133</ele>
        <time>2020-04-24T09:11:02.62Z</time>
      </trkpt>
      <trkpt lat="44.64608" lon="5.51604">
        <ele>1154</ele>
        <time>2020-04-24T09:13:48.75Z</time>
      </trkpt>
      <trkpt lat="44.64472" lon="5.51635">
        <ele>1199</ele>
        <time>2020-04-24T09:20:17.73Z</time>
      </trkpt>
      <trkpt lat="44.64445" lon="5.51648">
        <ele>1206</ele>
        <time>2020-04-24T09:21:18.53Z</time>
      </trkpt>
      <trkpt lat="44.64408" lon="5.51696">
        <ele>1218</ele>
        <time>2020-04-24T09:23:03.33Z</time>
      </trkpt>
      <trkpt lat="44.64364" lon="5.51712">
        <ele>1228</ele>
        <time>2020-04-24T09:24:35.86Z</time>
      </trkpt>
      <trkpt lat="44.64358" lon="5.51705">
        <ele>1230</ele>
        <time>2020-04-24T09:24:50.89Z</time>
      </trkpt>
      <trkpt lat="44.64368" lon="5.51679">
        <ele>1235</ele>
        <time>2020-04-24T09:25:37.66Z</time>
      </trkpt>
      <trkpt lat="44.64352" lon="5.51686">
        <ele>1238</ele>
        <time>2020-04-24T09:26:15.01Z</time>
      </trkpt>
      <trkpt lat="44.64274" lon="5.51742">
        <ele>1260</ele>
        <time>2020-04-24T09:29:35.19Z</time>
      </trkpt>
      <trkpt lat="44.64251" lon="5.51739">
        <ele>1266</ele>
        <time>2020-04-24T09:30:25.42Z</time>
      </trkpt>
      <trkpt lat="44.64214" lon="5.51749">
        <ele>1275</ele>
        <time>2020-04-24T09:31:50.81Z</time>
      </trkpt>
      <trkpt lat="44.64214" lon="5.51733">
        <ele>1278</ele>
        <time>2020-04-24T09:32:15.22Z</time>
      </trkpt>
      <trkpt lat="44.64229" lon="5.51694">
        <ele>1286</ele>
        <time>2020-04-24T09:33:25.46Z</time>
      </trkpt>
      <trkpt lat="44.64239" lon="5.51644">
        <ele>1295</ele>
        <time>2020-04-24T09:34:40.69Z</time>
      </trkpt>
      <trkpt lat="44.6427" lon="5.51551">
        <ele>1311</ele>
        <time>2020-04-24T09:37:11.15Z</time>
      </trkpt>
      <trkpt lat="44.64291" lon="5.51448">
        <ele>1329</ele>
        <time>2020-04-24T09:39:53.78Z</time>
      </trkpt>
      <trkpt lat="44.64318" lon="5.51411">
        <ele>1338</ele>
        <time>2020-04-24T09:41:16.29Z</time>
      </trkpt>
      <trkpt lat="44.64359" lon="5.51319">
        <ele>1357</ele>
        <time>2020-04-24T09:44:02.96Z</time>
      </trkpt>
      <trkpt lat="44.64378" lon="5.51302">
        <ele>1362</ele>
        <time>2020-04-24T09:44:49.34Z</time>
      </trkpt>
      <trkpt lat="44.64417" lon="5.51243">
        <ele>1375</ele>
        <time>2020-04-24T09:46:46.65Z</time>
      </trkpt>
      <trkpt lat="44.64419" lon="5.51225">
        <ele>1378</ele>
        <time>2020-04-24T09:47:14.27Z</time>
      </trkpt>
      <trkpt lat="44.6443" lon="5.51192">
        <ele>1384</ele>
        <time>2020-04-24T09:48:10.07Z</time>
      </trkpt>
      <trkpt lat="44.64449" lon="5.51172">
        <ele>1390</ele>
        <time>2020-04-24T09:49:18.87Z</time>
      </trkpt>
      <trkpt lat="44.64484" lon="5.51101">
        <ele>1411</ele>
        <time>2020-04-24T09:52:39.08Z</time>
      </trkpt>
      <trkpt lat="44.64444" lon="5.51079">
        <ele>1428</ele>
        <time>2020-04-24T09:55:13.97Z</time>
      </trkpt>
      <trkpt lat="44.64455" lon="5.51044">
        <ele>1439</ele>
        <time>2020-04-24T09:56:48.50Z</time>
      </trkpt>
      <trkpt lat="44.64449" lon="5.51035">
        <ele>1443</ele>
        <time>2020-04-24T09:57:18.84Z</time>
      </trkpt>
      <trkpt lat="44.64452" lon="5.51014">
        <ele>1448</ele>
        <time>2020-04-24T09:58:01.48Z</time>
      </trkpt>
      <trkpt lat="44.64439" lon="5.51002">
        <ele>1453</ele>
        <time>2020-04-24T09:58:42.27Z</time>
      </trkpt>
      <trkpt lat="44.64408" lon="5.51">
        <ele>1461</ele>
        <time>2020-04-24T09:59:39.72Z</time>
      </trkpt>
      <trkpt lat="44.64384" lon="5.50984">
        <ele>1464</ele>
        <time>2020-04-24T10:00:11.88Z</time>
      </trkpt>
      <trkpt lat="44.64379" lon="5.50973">
        <ele>1465</ele>
        <time>2020-04-24T10:00:23.42Z</time>
      </trkpt>
      <trkpt lat="44.64347" lon="5.50977">
        <ele>1465</ele>
        <time>2020-04-24T10:01:00.20Z</time>
      </trkpt>
      <trkpt lat="44.64277" lon="5.51014">
        <ele>1456</ele>
        <time>2020-04-24T10:02:32.82Z</time>
      </trkpt>
      <trkpt lat="44.64235" lon="5.51059">
        <ele>1448</ele>
        <time>2020-04-24T10:03:45.80Z</time>
      </trkpt>
      <trkpt lat="44.64184" lon="5.51125">
        <ele>1434</ele>
        <time>2020-04-24T10:05:35.57Z</time>
      </trkpt>
      <trkpt lat="44.6418" lon="5.51115">
        <ele>1431</ele>
        <time>2020-04-24T10:05:50.54Z</time>
      </trkpt>
      <trkpt lat="44.64175" lon="5.51118">
        <ele>1430</ele>
        <time>2020-04-24T10:05:59.87Z</time>
      </trkpt>
      <trkpt lat="44.64169" lon="5.5111">
        <ele>1427</ele>
        <time>2020-04-24T10:06:25.54Z</time>
      </trkpt>
      <trkpt lat="44.64169" lon="5.51085">
        <ele>1420</ele>
        <time>2020-04-24T10:07:25.27Z</time>
      </trkpt>
      <trkpt lat="44.64081" lon="5.51044">
        <ele>1369</ele>
        <time>2020-04-24T10:13:09.84Z</time>
      </trkpt>
      <trkpt lat="44.64021" lon="5.51055">
        <ele>1331</ele>
        <time>2020-04-24T10:16:14.94Z</time>
      </trkpt>
      <trkpt lat="44.63964" lon="5.50954">
        <ele>1297</ele>
        <time>2020-04-24T10:19:04.82Z</time>
      </trkpt>
      <trkpt lat="44.63946" lon="5.50941">
        <ele>1294</ele>
        <time>2020-04-24T10:19:43.12Z</time>
      </trkpt>
      <trkpt lat="44.63923" lon="5.5094">
        <ele>1292</ele>
        <time>2020-04-24T10:20:08.56Z</time>
      </trkpt>
      <trkpt lat="44.639" lon="5.50919">
        <ele>1292</ele>
        <time>2020-04-24T10:20:42.10Z</time>
      </trkpt>
      <trkpt lat="44.63913" lon="5.50899">
        <ele>1293</ele>
        <time>2020-04-24T10:21:06.22Z</time>
      </trkpt>
      <trkpt lat="44.63973" lon="5.50861">
        <ele>1299</ele>
        <time>2020-04-24T10:22:30.49Z</time>
      </trkpt>
      <trkpt lat="44.6395" lon="5.50857">
        <ele>1301</ele>
        <time>2020-04-24T10:23:01.59Z</time>
      </trkpt>
      <trkpt lat="44.63927" lon="5.50845">
        <ele>1304</ele>
        <time>2020-04-24T10:23:32.82Z</time>
      </trkpt>
      <trkpt lat="44.63902" lon="5.50822">
        <ele>1305</ele>
        <time>2020-04-24T10:24:06.76Z</time>
      </trkpt>
      <trkpt lat="44.63889" lon="5.50782">
        <ele>1305</ele>
        <time>2020-04-24T10:24:43.33Z</time>
      </trkpt>
      <trkpt lat="44.63878" lon="5.50698">
        <ele>1297</ele>
        <time>2020-04-24T10:26:02.34Z</time>
      </trkpt>
      <trkpt lat="44.63889" lon="5.507">
        <ele>1295</ele>
        <time>2020-04-24T10:26:16.63Z</time>
      </trkpt>
      <trkpt lat="44.63923" lon="5.5073">
        <ele>1287</ele>
        <time>2020-04-24T10:27:17.36Z</time>
      </trkpt>
      <trkpt lat="44.63955" lon="5.5073">
        <ele>1280</ele>
        <time>2020-04-24T10:28:05.09Z</time>
      </trkpt>
      <trkpt lat="44.63951" lon="5.5072">
        <ele>1278</ele>
        <time>2020-04-24T10:28:16.16Z</time>
      </trkpt>
      <trkpt lat="44.63933" lon="5.50702">
        <ele>1274</ele>
        <time>2020-04-24T10:28:45.82Z</time>
      </trkpt>
      <trkpt lat="44.63909" lon="5.50616">
        <ele>1264</ele>
        <time>2020-04-24T10:30:13.89Z</time>
      </trkpt>
      <trkpt lat="44.63889" lon="5.50587">
        <ele>1258</ele>
        <time>2020-04-24T10:30:58.11Z</time>
      </trkpt>
      <trkpt lat="44.63897" lon="5.50579">
        <ele>1256</ele>
        <time>2020-04-24T10:31:16.07Z</time>
      </trkpt>
      <trkpt lat="44.63913" lon="5.50577">
        <ele>1252</ele>
        <time>2020-04-24T10:31:45.03Z</time>
      </trkpt>
      <trkpt lat="44.63954" lon="5.50589">
        <ele>1239</ele>
        <time>2020-04-24T10:33:18.35Z</time>
      </trkpt>
      <trkpt lat="44.63959" lon="5.50577">
        <ele>1236</ele>
        <time>2020-04-24T10:33:41.85Z</time>
      </trkpt>
      <trkpt lat="44.63941" lon="5.50519">
        <ele>1218</ele>
        <time>2020-04-24T10:35:34.84Z</time>
      </trkpt>
      <trkpt lat="44.63945" lon="5.50508">
        <ele>1214</ele>
        <time>2020-04-24T10:35:56.30Z</time>
      </trkpt>
      <trkpt lat="44.63965" lon="5.50506">
        <ele>1207</ele>
        <time>2020-04-24T10:36:41.49Z</time>
      </trkpt>
      <trkpt lat="44.63984" lon="5.50466">
        <ele>1196</ele>
        <time>2020-04-24T10:37:37.92Z</time>
      </trkpt>
      <trkpt lat="44.63999" lon="5.50459">
        <ele>1192</ele>
        <time>2020-04-24T10:38:04.36Z</time>
      </trkpt>
      <trkpt lat="44.64026" lon="5.50464">
        <ele>1188</ele>
        <time>2020-04-24T10:38:34.82Z</time>
      </trkpt>
      <trkpt lat="44.64042" lon="5.50503">
        <ele>1188</ele>
        <time>2020-04-24T10:39:10.99Z</time>
      </trkpt>
      <trkpt lat="44.6406" lon="5.50521">
        <ele>1189</ele>
        <time>2020-04-24T10:39:38.70Z</time>
      </trkpt>
      <trkpt lat="44.64077" lon="5.50569">
        <ele>1191</ele>
        <time>2020-04-24T10:40:23.95Z</time>
      </trkpt>
      <trkpt lat="44.64109" lon="5.50543">
        <ele>1192</ele>
        <time>2020-04-24T10:41:04.65Z</time>
      </trkpt>
      <trkpt lat="44.64147" lon="5.5053">
        <ele>1188</ele>
        <time>2020-04-24T10:41:55.27Z</time>
      </trkpt>
      <trkpt lat="44.64161" lon="5.50536">
        <ele>1186</ele>
        <time>2020-04-24T10:42:13.91Z</time>
      </trkpt>
      <trkpt lat="44.64189" lon="5.50521">
        <ele>1179</ele>
        <time>2020-04-24T10:43:03.85Z</time>
      </trkpt>
      <trkpt lat="44.64214" lon="5.50479">
        <ele>1169</ele>
        <time>2020-04-24T10:44:07.15Z</time>
      </trkpt>
      <trkpt lat="44.64255" lon="5.50444">
        <ele>1158</ele>
        <time>2020-04-24T10:45:10.58Z</time>
      </trkpt>
      <trkpt lat="44.64248" lon="5.50383">
        <ele>1154</ele>
        <time>2020-04-24T10:45:59.72Z</time>
      </trkpt>
      <trkpt lat="44.64261" lon="5.50366">
        <ele>1153</ele>
        <time>2020-04-24T10:46:19.23Z</time>
      </trkpt>
      <trkpt lat="44.64268" lon="5.50328">
        <ele>1154</ele>
        <time>2020-04-24T10:46:51.84Z</time>
      </trkpt>
      <trkpt lat="44.64312" lon="5.50303">
        <ele>1155</ele>
        <time>2020-04-24T10:47:44.39Z</time>
      </trkpt>
      <trkpt lat="44.64364" lon="5.50197">
        <ele>1152</ele>
        <time>2020-04-24T10:49:26.23Z</time>
      </trkpt>
      <trkpt lat="44.64396" lon="5.50183">
        <ele>1149</ele>
        <time>2020-04-24T10:50:05.26Z</time>
      </trkpt>
      <trkpt lat="44.64412" lon="5.50151">
        <ele>1146</ele>
        <time>2020-04-24T10:50:38.88Z</time>
      </trkpt>
      <trkpt lat="44.64437" lon="5.50129">
        <ele>1143</ele>
        <time>2020-04-24T10:51:13.90Z</time>
      </trkpt>
      <trkpt lat="44.64452" lon="5.50101">
        <ele>1140</ele>
        <time>2020-04-24T10:51:43.86Z</time>
      </trkpt>
      <trkpt lat="44.64465" lon="5.50026">
        <ele>1134</ele>
        <time>2020-04-24T10:52:48.38Z</time>
      </trkpt>
      <trkpt lat="44.64448" lon="5.49994">
        <ele>1132</ele>
        <time>2020-04-24T10:53:21.10Z</time>
      </trkpt>
      <trkpt lat="44.64453" lon="5.4996">
        <ele>1130</ele>
        <time>2020-04-24T10:53:49.17Z</time>
      </trkpt>
      <trkpt lat="44.64468" lon="5.49934">
        <ele>1128</ele>
        <time>2020-04-24T10:54:17.47Z</time>
      </trkpt>
      <trkpt lat="44.64539" lon="5.49896">
        <ele>1120</ele>
        <time>2020-04-24T10:55:47.64Z</time>
      </trkpt>
      <trkpt lat="44.64548" lon="5.49884">
        <ele>1119</ele>
        <time>2020-04-24T10:56:03.84Z</time>
      </trkpt>
      <trkpt lat="44.64561" lon="5.49877">
        <ele>1117</ele>
        <time>2020-04-24T10:56:24.19Z</time>
      </trkpt>
      <trkpt lat="44.6467" lon="5.4988">
        <ele>1093</ele>
        <time>2020-04-24T10:59:35.76Z</time>
      </trkpt>
      <trkpt lat="44.64748" lon="5.49858">
        <ele>1066</ele>
        <time>2020-04-24T11:02:30.50Z</time>
      </trkpt>
      <trkpt lat="44.64771" lon="5.4986">
        <ele>1058</ele>
        <time>2020-04-24T11:03:22Z</time>
      </trkpt>
      <trkpt lat="44.64793" lon="5.49851">
        <ele>1050</ele>
        <time>2020-04-24T11:04:07.72Z</time>
      </trkpt>
      <trkpt lat="44.64787" lon="5.49875">
        <ele>1045</ele>
        <time>2020-04-24T11:04:43.43Z</time>
      </trkpt>
      <trkpt lat="44.64771" lon="5.4989">
        <ele>1039</ele>
        <time>2020-04-24T11:05:18.75Z</time>
      </trkpt>
      <trkpt lat="44.64761" lon="5.49924">
        <ele>1032</ele>
        <time>2020-04-24T11:06:02.51Z</time>
      </trkpt>
      <trkpt lat="44.64813" lon="5.49938">
        <ele>1019</ele>
        <time>2020-04-24T11:07:27.42Z</time>
      </trkpt>
      <trkpt lat="44.64846" lon="5.49937">
        <ele>1012</ele>
        <time>2020-04-24T11:08:18.62Z</time>
      </trkpt>
      <trkpt lat="44.64876" lon="5.49945">
        <ele>1005</ele>
        <time>2020-04-24T11:09:05.56Z</time>
      </trkpt>
      <trkpt lat="44.64937" lon="5.49929">
        <ele>992</ele>
        <time>2020-04-24T11:10:36.34Z</time>
      </trkpt>
      <trkpt lat="44.64975" lon="5.49926">
        <ele>985</ele>
        <time>2020-04-24T11:11:27Z</time>
      </trkpt>
      <trkpt lat="44.64976" lon="5.49998">
        <ele>977</ele>
        <time>2020-04-24T11:12:33.46Z</time>
      </trkpt>
      <trkpt lat="44.64992" lon="5.50021">
        <ele>973</ele>
        <time>2020-04-24T11:13:03.04Z</time>
      </trkpt>
      <trkpt lat="44.65022" lon="5.50003">
        <ele>969</ele>
        <time>2020-04-24T11:13:42.85Z</time>
      </trkpt>
      <trkpt lat="44.65036" lon="5.50013">
        <ele>967</ele>
        <time>2020-04-24T11:14:02.48Z</time>
      </trkpt>
      <trkpt lat="44.65037" lon="5.49994">
        <ele>965</ele>
        <time>2020-04-24T11:14:19.58Z</time>
      </trkpt>
      <trkpt lat="44.65055" lon="5.49934">
        <ele>958</ele>
        <time>2020-04-24T11:15:18.35Z</time>
      </trkpt>
      <trkpt lat="44.6508" lon="5.49902">
        <ele>953</ele>
        <time>2020-04-24T11:16:04.11Z</time>
      </trkpt>
      <trkpt lat="44.65083" lon="5.49889">
        <ele>951</ele>
        <time>2020-04-24T11:16:17.38Z</time>
      </trkpt>
      <trkpt lat="44.65108" lon="5.4989">
        <ele>946</ele>
        <time>2020-04-24T11:16:54.40Z</time>
      </trkpt>
      <trkpt lat="44.65132" lon="5.49898">
        <ele>941</ele>
        <time>2020-04-24T11:17:32.13Z</time>
      </trkpt>
      <trkpt lat="44.65166" lon="5.49868">
        <ele>932</ele>
        <time>2020-04-24T11:18:35.35Z</time>
      </trkpt>
      <trkpt lat="44.65193" lon="5.49871">
        <ele>926</ele>
        <time>2020-04-24T11:19:15.70Z</time>
      </trkpt>
      <trkpt lat="44.65265" lon="5.49856">
        <ele>911</ele>
        <time>2020-04-24T11:21:00.94Z</time>
      </trkpt>
      <trkpt lat="44.65328" lon="5.49834">
        <ele>899</ele>
        <time>2020-04-24T11:22:33.24Z</time>
      </trkpt>
      <trkpt lat="44.6535" lon="5.49815">
        <ele>894</ele>
        <time>2020-04-24T11:23:10.37Z</time>
      </trkpt>
      <trkpt lat="44.65391" lon="5.49803">
        <ele>886</ele>
        <time>2020-04-24T11:24:10.67Z</time>
      </trkpt>
      <trkpt lat="44.65447" lon="5.49769">
        <ele>874</ele>
        <time>2020-04-24T11:25:36.69Z</time>
      </trkpt>
      <trkpt lat="44.65485" lon="5.497">
        <ele>863</ele>
        <time>2020-04-24T11:27:02.02Z</time>
      </trkpt>
      <trkpt lat="44.65519" lon="5.49659">
        <ele>855</ele>
        <time>2020-04-24T11:28:02.53Z</time>
      </trkpt>
      <trkpt lat="44.65563" lon="5.49629">
        <ele>847</ele>
        <time>2020-04-24T11:29:05.19Z</time>
      </trkpt>
      <trkpt lat="44.65583" lon="5.49626">
        <ele>844</ele>
        <time>2020-04-24T11:29:31.71Z</time>
      </trkpt>
      <trkpt lat="44.65589" lon="5.49632">
        <ele>843</ele>
        <time>2020-04-24T11:29:40.82Z</time>
      </trkpt>
      <trkpt lat="44.65609" lon="5.49617">
        <ele>839</ele>
        <time>2020-04-24T11:30:08.92Z</time>
      </trkpt>
      <trkpt lat="44.65626" lon="5.49622">
        <ele>837</ele>
        <time>2020-04-24T11:30:30.47Z</time>
      </trkpt>
      <trkpt lat="44.65711" lon="5.4957">
        <ele>823</ele>
        <time>2020-04-24T11:32:30.38Z</time>
      </trkpt>
      <trkpt lat="44.65716" lon="5.4955">
        <ele>820</ele>
        <time>2020-04-24T11:32:49.72Z</time>
      </trkpt>
      <trkpt lat="44.65746" lon="5.49516">
        <ele>814</ele>
        <time>2020-04-24T11:33:38.68Z</time>
      </trkpt>
      <trkpt lat="44.65779" lon="5.49503">
        <ele>809</ele>
        <time>2020-04-24T11:34:21.79Z</time>
      </trkpt>
      <trkpt lat="44.65826" lon="5.49455">
        <ele>800</ele>
        <time>2020-04-24T11:35:36.99Z</time>
      </trkpt>
      <trkpt lat="44.65871" lon="5.49426">
        <ele>792</ele>
        <time>2020-04-24T11:36:41.14Z</time>
      </trkpt>
      <trkpt lat="44.65947" lon="5.49399">
        <ele>780</ele>
        <time>2020-04-24T11:38:21.18Z</time>
      </trkpt>
      <trkpt lat="44.65969" lon="5.49383">
        <ele>776</ele>
        <time>2020-04-24T11:38:52.44Z</time>
      </trkpt>
      <trkpt lat="44.66004" lon="5.49365">
        <ele>771</ele>
        <time>2020-04-24T11:39:38.31Z</time>
      </trkpt>
      <trkpt lat="44.6608" lon="5.49383">
        <ele>760</ele>
        <time>2020-04-24T11:41:13.36Z</time>
      </trkpt>
      <trkpt lat="44.66122" lon="5.49379">
        <ele>755</ele>
        <time>2020-04-24T11:42:04.28Z</time>
      </trkpt>
      <trkpt lat="44.6617" lon="5.49327">
        <ele>747</ele>
        <time>2020-04-24T11:43:17.86Z</time>
      </trkpt>
      <trkpt lat="44.66205" lon="5.49319">
        <ele>743</ele>
        <time>2020-04-24T11:44:01.01Z</time>
      </trkpt>
      <trkpt lat="44.66242" lon="5.49304">
        <ele>739</ele>
        <time>2020-04-24T11:44:45.91Z</time>
      </trkpt>
      <trkpt lat="44.66255" lon="5.49269">
        <ele>736</ele>
        <time>2020-04-24T11:45:20.05Z</time>
      </trkpt>
      <trkpt lat="44.66295" lon="5.49246">
        <ele>731</ele>
        <time>2020-04-24T11:46:11.59Z</time>
      </trkpt>
      <trkpt lat="44.66459" lon="5.49205">
        <ele>712</ele>
        <time>2020-04-24T11:49:28.44Z</time>
      </trkpt>
      <trkpt lat="44.66532" lon="5.49166">
        <ele>706</ele>
        <time>2020-04-24T11:50:54.85Z</time>
      </trkpt>
      <trkpt lat="44.6654" lon="5.49169">
        <ele>705</ele>
        <time>2020-04-24T11:51:04.14Z</time>
      </trkpt>
      <trkpt lat="44.6654" lon="5.49185">
        <ele>705</ele>
        <time>2020-04-24T11:51:16.68Z</time>
      </trkpt>
      <trkpt lat="44.66521" lon="5.49242">
        <ele>705</ele>
        <time>2020-04-24T11:52:06.83Z</time>
      </trkpt>
      <trkpt lat="44.66524" lon="5.49257">
        <ele>705</ele>
        <time>2020-04-24T11:52:19.47Z</time>
      </trkpt>
      <trkpt lat="44.66537" lon="5.49259">
        <ele>705</ele>
        <time>2020-04-24T11:52:33.25Z</time>
      </trkpt>
      <trkpt lat="44.66569" lon="5.49219">
        <ele>705</ele>
        <time>2020-04-24T11:53:20.92Z</time>
      </trkpt>
      <trkpt lat="44.66581" lon="5.49219">
        <ele>705</ele>
        <time>2020-04-24T11:53:34.59Z</time>
      </trkpt>
      <trkpt lat="44.66606" lon="5.49276">
        <ele>703</ele>
        <time>2020-04-24T11:54:27.43Z</time>
      </trkpt>
      <trkpt lat="44.66622" lon="5.49299">
        <ele>703</ele>
        <time>2020-04-24T11:54:52.97Z</time>
      </trkpt>
      <trkpt lat="44.66663" lon="5.4938">
        <ele>701</ele>
        <time>2020-04-24T11:56:11.73Z</time>
      </trkpt>
      <trkpt lat="44.66693" lon="5.49396">
        <ele>703</ele>
        <time>2020-04-24T11:56:51.81Z</time>
      </trkpt>
      <trkpt lat="44.66709" lon="5.49425">
        <ele>705</ele>
        <time>2020-04-24T11:57:26.93Z</time>
      </trkpt>
      <trkpt lat="44.66705" lon="5.49456">
        <ele>707</ele>
        <time>2020-04-24T11:57:56.67Z</time>
      </trkpt>
      <trkpt lat="44.66715" lon="5.49496">
        <ele>711</ele>
        <time>2020-04-24T11:58:37.22Z</time>
      </trkpt>
      <trkpt lat="44.66751" lon="5.49535">
        <ele>715</ele>
        <time>2020-04-24T11:59:33.33Z</time>
      </trkpt>
      <trkpt lat="44.66796" lon="5.4954">
        <ele>716</ele>
        <time>2020-04-24T12:00:22.65Z</time>
      </trkpt>
      <trkpt lat="44.6687" lon="5.49557">
        <ele>708</ele>
        <time>2020-04-24T12:01:51.72Z</time>
      </trkpt>
      <trkpt lat="44.66891" lon="5.49571">
        <ele>706</ele>
        <time>2020-04-24T12:02:17.80Z</time>
      </trkpt>
      <trkpt lat="44.66904" lon="5.49588">
        <ele>705</ele>
        <time>2020-04-24T12:02:37.49Z</time>
      </trkpt>
      <trkpt lat="44.66939" lon="5.49609">
        <ele>704</ele>
        <time>2020-04-24T12:03:19.66Z</time>
      </trkpt>
    </trkseg>
  </trk>
</gpx>